Time,TemperatureF,DewpointF,PressureIn,WindDirection,WindDirectionDegrees,WindSpeedMPH,WindSpeedGustMPH,Humidity,HourlyPrecipIn,Conditions,Clouds,dailyrainin,SolarRadiationWatts/m^2,SoftwareType,DateUTC
2013-05-22 00:04:00,61.7,60.5,29.86,SSW,199,4.0,12.0,96,0.00,,,0.00,0,Wunderground v.1.15,2013-05-22 04:04:00,
2013-05-22 00:09:00,61.7,60.5,29.87,SSW,209,5.0,12.0,96,0.00,,,0.00,0,Wunderground v.1.15,2013-05-22 04:09:00,
2013-05-22 00:14:00,61.7,60.5,29.87,SW,215,5.0,12.0,96,0.00,,,0.00,0,Wunderground v.1.15,2013-05-22 04:14:00,
2013-05-22 00:19:00,61.7,60.5,29.87,South,181,5.0,12.0,96,0.00,,,0.00,0,Wunderground v.1.15,2013-05-22 04:19:00,
2013-05-22 00:24:00,61.6,60.4,29.87,SW,216,5.0,13.0,96,0.00,,,0.00,0,Wunderground v.1.15,2013-05-22 04:24:00,
2013-05-22 00:29:00,61.6,60.4,29.87,SSW,213,5.0,5.0,96,0.00,,,0.00,0,Wunderground v.1.15,2013-05-22 04:29:00,
2013-05-22 00:39:00,61.6,60.4,29.87,SSW,208,6.0,13.0,96,0.00,,,0.00,0,Wunderground v.1.15,2013-05-22 04:39:00,
2013-05-22 00:49:00,61.7,60.5,29.87,SSW,209,6.0,6.0,96,0.00,,,0.00,0,Wunderground v.1.15,2013-05-22 04:49:00,
2013-05-22 00:59:00,61.8,60.9,29.87,SSW,201,4.0,12.0,97,0.00,,,0.00,0,Wunderground v.1.15,2013-05-22 04:59:00,
2013-05-22 01:09:00,61.9,61.0,29.87,SSW,203,5.0,5.0,97,0.00,,,0.00,0,Wunderground v.1.15,2013-05-22 05:09:00,
2013-05-22 01:19:00,62.0,61.1,29.87,South,190,5.0,12.0,97,0.00,,,0.00,0,Wunderground v.1.15,2013-05-22 05:19:00,
2013-05-22 01:29:00,62.2,61.0,29.88,SW,221,6.0,11.0,96,0.00,,,0.00,0,Wunderground v.1.15,2013-05-22 05:29:00,
2013-05-22 01:39:00,62.5,61.3,29.89,SW,217,6.0,6.0,96,0.00,,,0.00,0,Wunderground v.1.15,2013-05-22 05:39:00,
2013-05-22 01:44:00,62.7,61.8,29.89,SW,215,6.0,11.0,97,0.00,,,0.00,0,Wunderground v.1.15,2013-05-22 05:44:00,
2013-05-22 01:54:00,62.8,61.6,29.89,West,263,3.0,13.0,96,0.00,,,0.00,0,Wunderground v.1.15,2013-05-22 05:54:00,
2013-05-22 02:04:00,62.8,61.6,29.89,West,263,0.0,13.0,96,0.00,,,0.00,0,Wunderground v.1.15,2013-05-22 06:04:00,
2013-05-22 02:09:00,62.7,61.5,29.89,West,263,0.0,13.0,96,0.00,,,0.00,0,Wunderground v.1.15,2013-05-22 06:09:00,
2013-05-22 02:19:00,62.9,61.7,29.89,NNW,342,1.0,1.0,96,0.00,,,0.00,0,Wunderground v.1.15,2013-05-22 06:19:00,
2013-05-22 02:24:00,63.0,61.8,29.89,NNW,342,1.0,6.0,96,0.00,,,0.00,0,Wunderground v.1.15,2013-05-22 06:24:00,
2013-05-22 02:34:00,63.3,62.4,29.89,NNE,19,2.0,6.0,97,0.00,,,0.00,0,Wunderground v.1.15,2013-05-22 06:34:00,
2013-05-22 02:44:00,63.6,62.4,29.89,ENE,69,3.0,6.0,96,0.00,,,0.00,0,Wunderground v.1.15,2013-05-22 06:44:00,
2013-05-22 02:49:00,63.7,62.5,29.89,ENE,75,3.0,6.0,96,0.00,,,0.00,0,Wunderground v.1.15,2013-05-22 06:49:00,
2013-05-22 02:59:00,63.0,61.8,29.90,NE,42,5.0,8.0,96,0.00,,,0.00,0,Wunderground v.1.15,2013-05-22 06:59:00,
2013-05-22 03:09:00,60.2,58.8,29.90,NE,47,7.0,9.0,95,0.00,,,0.00,0,Wunderground v.1.15,2013-05-22 07:09:00,
2013-05-22 03:14:00,59.3,57.9,29.90,East,92,6.0,9.0,95,0.00,,,0.00,0,Wunderground v.1.15,2013-05-22 07:14:00,
2013-05-22 03:24:00,57.9,56.5,29.90,ENE,67,8.0,13.0,95,0.00,,,0.00,0,Wunderground v.1.15,2013-05-22 07:24:00,
2013-05-22 03:34:00,57.4,56.3,29.90,ENE,76,8.0,13.0,96,0.00,,,0.00,0,Wunderground v.1.15,2013-05-22 07:34:00,
2013-05-22 03:44:00,56.9,55.8,29.90,ENE,61,9.0,14.0,96,0.00,,,0.00,0,Wunderground v.1.15,2013-05-22 07:44:00,
2013-05-22 03:49:00,56.6,55.5,29.90,ENE,57,9.0,14.0,96,0.00,,,0.00,0,Wunderground v.1.15,2013-05-22 07:49:00,
2013-05-22 03:59:00,56.1,55.0,29.90,East,96,9.0,9.0,96,0.00,,,0.00,0,Wunderground v.1.15,2013-05-22 07:59:00,
2013-05-22 04:09:00,55.6,54.5,29.90,ENE,57,9.0,18.0,96,0.00,,,0.00,0,Wunderground v.1.15,2013-05-22 08:09:00,
2013-05-22 04:19:00,55.4,54.3,29.90,NE,43,8.0,8.0,96,0.00,,,0.00,0,Wunderground v.1.15,2013-05-22 08:19:00,
2013-05-22 04:29:00,55.4,54.6,29.90,East,92,8.0,8.0,97,0.00,,,0.00,0,Wunderground v.1.15,2013-05-22 08:29:00,
2013-05-22 04:39:00,55.3,54.5,29.90,ESE,112,9.0,18.0,97,0.00,,,0.00,0,Wunderground v.1.15,2013-05-22 08:39:00,
2013-05-22 04:49:00,54.8,54.0,29.90,NE,41,10.0,10.0,97,0.00,,,0.00,0,Wunderground v.1.15,2013-05-22 08:49:00,
2013-05-22 04:59:00,54.5,53.7,29.92,NNE,31,9.0,9.0,97,0.00,,,0.00,0,Wunderground v.1.15,2013-05-22 08:59:00,
2013-05-22 05:09:00,54.6,53.8,29.92,NE,34,8.0,8.0,97,0.00,,,0.00,0,Wunderground v.1.15,2013-05-22 09:09:00,
2013-05-22 05:14:00,54.5,53.7,29.92,ENE,74,9.0,14.0,97,0.00,,,0.00,0,Wunderground v.1.15,2013-05-22 09:14:00,
2013-05-22 05:24:00,54.7,53.9,29.93,NNE,24,8.0,20.0,97,0.00,,,0.00,0,Wunderground v.1.15,2013-05-22 09:24:00,
2013-05-22 05:34:00,55.0,54.2,29.92,ENE,65,6.0,18.0,97,0.00,,,0.00,0,Wunderground v.1.15,2013-05-22 09:34:00,
2013-05-22 05:44:00,55.2,54.4,29.92,NE,55,7.0,18.0,97,0.00,,,0.00,0,Wunderground v.1.15,2013-05-22 09:44:00,
2013-05-22 05:54:00,55.5,54.7,29.92,ENE,63,6.0,18.0,97,0.00,,,0.00,5,Wunderground v.1.15,2013-05-22 09:54:00,
2013-05-22 06:04:00,55.7,54.9,29.93,NNE,31,7.0,14.0,97,0.00,,,0.00,7,Wunderground v.1.15,2013-05-22 10:04:00,
2013-05-22 06:14:00,55.5,54.7,29.93,ENE,64,7.0,14.0,97,0.00,,,0.00,11,Wunderground v.1.15,2013-05-22 10:14:00,
2013-05-22 06:24:00,55.5,54.7,29.94,NNW,348,6.0,18.0,97,0.00,,,0.00,16,Wunderground v.1.15,2013-05-22 10:24:00,
2013-05-22 06:34:00,55.4,54.6,29.94,NNE,24,6.0,18.0,97,0.00,,,0.00,18,Wunderground v.1.15,2013-05-22 10:34:00,
2013-05-22 06:39:00,55.3,54.5,29.95,NNE,26,6.0,6.0,97,0.00,,,0.00,21,Wunderground v.1.15,2013-05-22 10:39:00,
2013-05-22 06:49:00,55.1,54.3,29.94,NE,42,6.0,6.0,97,0.00,,,0.00,32,Wunderground v.1.15,2013-05-22 10:49:00,
2013-05-22 06:54:00,55.1,54.3,29.94,North,360,4.0,14.0,97,0.00,,,0.00,44,Wunderground v.1.15,2013-05-22 10:54:00,
2013-05-22 07:04:00,55.2,54.4,29.94,NE,40,5.0,14.0,97,0.00,,,0.00,63,Wunderground v.1.15,2013-05-22 11:04:00,
2013-05-22 07:14:00,55.2,54.4,29.94,NNE,24,5.0,14.0,97,0.00,,,0.00,58,Wunderground v.1.15,2013-05-22 11:14:00,
2013-05-22 07:24:00,55.1,54.3,29.93,East,91,7.0,14.0,97,0.00,,,0.00,70,Wunderground v.1.15,2013-05-22 11:24:00,
2013-05-22 07:34:00,54.8,54.0,29.92,ENE,71,7.0,14.0,97,0.00,,,0.00,77,Wunderground v.1.15,2013-05-22 11:34:00,
2013-05-22 07:44:00,54.6,53.8,29.92,East,86,7.0,8.0,97,0.00,,,0.00,137,Wunderground v.1.15,2013-05-22 11:44:00,
2013-05-22 07:54:00,54.9,54.1,29.93,ESE,102,7.0,15.0,97,0.00,,,0.00,171,Wunderground v.1.15,2013-05-22 11:54:00,
2013-05-22 08:04:00,54.9,54.1,29.92,ESE,109,6.0,15.0,97,0.00,,,0.00,93,Wunderground v.1.15,2013-05-22 12:04:00,
2013-05-22 08:14:00,55.0,54.2,29.93,East,89,5.0,15.0,97,0.00,,,0.00,42,Wunderground v.1.15,2013-05-22 12:14:00,
2013-05-22 08:24:00,55.1,54.3,29.92,East,89,6.0,15.0,97,0.00,,,0.00,192,Wunderground v.1.15,2013-05-22 12:24:00,
2013-05-22 08:29:00,55.4,54.6,29.92,ESE,123,6.0,6.0,97,0.00,,,0.00,248,Wunderground v.1.15,2013-05-22 12:29:00,
2013-05-22 08:39:00,56.3,55.5,29.92,East,98,7.0,7.0,97,0.00,,,0.00,362,Wunderground v.1.15,2013-05-22 12:39:00,
2013-05-22 08:44:00,56.6,55.8,29.92,East,92,6.0,13.0,97,0.00,,,0.00,294,Wunderground v.1.15,2013-05-22 12:44:00,
2013-05-22 08:54:00,56.2,55.4,29.92,SE,130,6.0,15.0,97,0.00,,,0.00,197,Wunderground v.1.15,2013-05-22 12:54:00,
2013-05-22 09:04:00,56.5,55.7,29.93,East,94,3.0,15.0,97,0.00,,,0.00,109,Wunderground v.1.15,2013-05-22 13:04:00,
2013-05-22 09:14:00,56.5,55.7,29.93,ENE,67,3.0,4.0,97,0.00,,,0.00,195,Wunderground v.1.15,2013-05-22 13:14:00,
2013-05-22 09:24:00,57.1,56.0,29.92,ESE,123,3.0,4.0,96,0.00,,,0.00,213,Wunderground v.1.15,2013-05-22 13:24:00,
2013-05-22 09:34:00,57.4,56.3,29.92,East,83,2.0,15.0,96,0.00,,,0.00,274,Wunderground v.1.15,2013-05-22 13:34:00,
2013-05-22 09:44:00,57.7,56.6,29.92,East,101,4.0,5.0,96,0.00,,,0.00,334,Wunderground v.1.15,2013-05-22 13:44:00,
2013-05-22 09:49:00,57.8,56.7,29.92,ESE,119,4.0,4.0,96,0.00,,,0.00,359,Wunderground v.1.15,2013-05-22 13:49:00,
2013-05-22 09:59:00,58.3,56.9,29.91,East,101,3.0,8.0,95,0.00,,,0.00,360,Wunderground v.1.15,2013-05-22 13:59:00,
2013-05-22 10:09:00,58.7,57.3,29.91,ESE,119,3.0,3.0,95,0.00,,,0.00,350,Wunderground v.1.15,2013-05-22 14:09:00,
2013-05-22 10:14:00,58.9,57.5,29.91,SE,140,4.0,4.0,95,0.00,,,0.00,383,Wunderground v.1.15,2013-05-22 14:14:00,
2013-05-22 10:24:00,58.9,57.5,29.91,SE,144,5.0,10.0,95,0.00,,,0.00,336,Wunderground v.1.15,2013-05-22 14:24:00,
2013-05-22 10:29:00,58.7,57.3,29.91,South,169,5.0,5.0,95,0.00,,,0.00,350,Wunderground v.1.15,2013-05-22 14:29:00,
2013-05-22 10:39:00,58.6,57.2,29.91,SE,131,4.0,10.0,95,0.00,,,0.00,330,Wunderground v.1.15,2013-05-22 14:39:00,
2013-05-22 10:49:00,59.5,58.4,29.92,SSE,155,1.0,10.0,96,0.00,,,0.00,318,Wunderground v.1.15,2013-05-22 14:49:00,
2013-05-22 10:54:00,59.8,58.7,29.92,SSE,165,1.0,10.0,96,0.00,,,0.00,330,Wunderground v.1.15,2013-05-22 14:54:00,
2013-05-22 11:04:00,60.3,59.2,29.92,SSW,192,3.0,10.0,96,0.00,,,0.00,262,Wunderground v.1.15,2013-05-22 15:04:00,
2013-05-22 11:09:00,60.8,59.7,29.92,SSW,213,2.0,10.0,96,0.00,,,0.00,306,Wunderground v.1.15,2013-05-22 15:09:00,
2013-05-22 11:19:00,61.3,59.9,29.92,SSW,209,3.0,3.0,95,0.00,,,0.00,299,Wunderground v.1.15,2013-05-22 15:19:00,
2013-05-22 11:29:00,61.4,60.0,29.92,SSW,197,3.0,3.0,95,0.00,,,0.00,376,Wunderground v.1.15,2013-05-22 15:29:00,
2013-05-22 11:34:00,61.7,60.3,29.92,SSE,159,2.0,4.0,95,0.00,,,0.00,345,Wunderground v.1.15,2013-05-22 15:34:00,
2013-05-22 11:44:00,61.7,60.3,29.92,South,177,4.0,6.0,95,0.00,,,0.00,355,Wunderground v.1.15,2013-05-22 15:44:00,
2013-05-22 11:54:00,62.3,60.8,29.92,SSE,158,4.0,5.0,95,0.00,,,0.00,461,Wunderground v.1.15,2013-05-22 15:54:00,
2013-05-22 12:04:00,62.9,61.1,29.92,South,186,3.0,7.0,94,0.00,,,0.00,378,Wunderground v.1.15,2013-05-22 16:04:00,
2013-05-22 12:14:00,62.9,60.8,29.92,WSW,249,3.0,5.0,93,0.00,,,0.00,357,Wunderground v.1.15,2013-05-22 16:14:00,
2013-05-22 12:24:00,62.7,60.9,29.91,SSW,210,4.0,9.0,94,0.00,,,0.00,396,Wunderground v.1.15,2013-05-22 16:24:00,
2013-05-22 12:34:00,63.0,61.2,29.91,SSW,197,4.0,9.0,94,0.00,,,0.00,415,Wunderground v.1.15,2013-05-22 16:34:00,
2013-05-22 12:39:00,64.0,61.9,29.91,South,173,3.0,9.0,93,0.00,,,0.00,441,Wunderground v.1.15,2013-05-22 16:39:00,
2013-05-22 12:49:00,63.4,61.3,29.91,SW,218,4.0,9.0,93,0.00,,,0.00,475,Wunderground v.1.15,2013-05-22 16:49:00,
2013-05-22 12:54:00,63.9,62.1,29.91,South,184,5.0,9.0,94,0.00,,,0.00,494,Wunderground v.1.15,2013-05-22 16:54:00,
2013-05-22 12:59:00,64.0,61.6,29.91,SW,225,4.0,8.0,92,0.00,,,0.00,529,Wunderground v.1.15,2013-05-22 16:59:00,
2013-05-22 13:09:00,64.6,62.2,29.91,SW,218,4.0,8.0,92,0.00,,,0.00,686,Wunderground v.1.15,2013-05-22 17:09:00,
2013-05-22 13:19:00,65.6,62.6,29.90,SSE,157,4.0,4.0,90,0.00,,,0.00,738,Wunderground v.1.15,2013-05-22 17:19:00,
2013-05-22 13:24:00,65.9,62.6,29.90,SSE,154,4.0,5.0,89,0.00,,,0.00,629,Wunderground v.1.15,2013-05-22 17:24:00,
2013-05-22 13:34:00,66.5,62.5,29.90,South,176,3.0,9.0,87,0.00,,,0.00,628,Wunderground v.1.15,2013-05-22 17:34:00,
2013-05-22 13:44:00,66.1,62.8,29.89,SE,130,3.0,9.0,89,0.00,,,0.00,659,Wunderground v.1.15,2013-05-22 17:44:00,
2013-05-22 13:54:00,67.1,62.8,29.89,ESE,121,2.0,9.0,86,0.00,,,0.00,717,Wunderground v.1.15,2013-05-22 17:54:00,
2013-05-22 14:04:00,67.4,61.7,29.89,ESE,122,4.0,7.0,82,0.00,,,0.00,613,Wunderground v.1.15,2013-05-22 18:04:00,
2013-05-22 14:14:00,65.6,61.3,29.89,South,175,4.0,7.0,86,0.00,,,0.00,529,Wunderground v.1.15,2013-05-22 18:14:00,
2013-05-22 14:24:00,64.4,60.8,29.89,ESE,119,4.0,10.0,88,0.00,,,0.00,533,Wunderground v.1.15,2013-05-22 18:24:00,
2013-05-22 14:29:00,64.3,60.3,29.89,SSE,163,4.0,4.0,87,0.00,,,0.00,566,Wunderground v.1.15,2013-05-22 18:29:00,
2013-05-22 14:39:00,63.3,60.0,29.88,SE,131,5.0,5.0,89,0.00,,,0.00,499,Wunderground v.1.15,2013-05-22 18:39:00,
2013-05-22 14:44:00,63.3,60.0,29.89,SE,134,5.0,10.0,89,0.00,,,0.00,466,Wunderground v.1.15,2013-05-22 18:44:00,
2013-05-22 14:54:00,62.5,59.8,29.89,SE,146,4.0,10.0,91,0.00,,,0.00,392,Wunderground v.1.15,2013-05-22 18:54:00,
2013-05-22 15:04:00,62.3,59.9,29.89,SSW,211,4.0,10.0,92,0.00,,,0.00,297,Wunderground v.1.15,2013-05-22 19:04:00,
2013-05-22 15:09:00,62.5,60.4,29.89,SSE,157,3.0,10.0,93,0.00,,,0.00,304,Wunderground v.1.15,2013-05-22 19:09:00,
2013-05-22 15:19:00,62.3,59.9,29.89,SW,229,3.0,3.0,92,0.00,,,0.00,323,Wunderground v.1.15,2013-05-22 19:19:00,
2013-05-22 15:29:00,62.0,59.6,29.89,SSE,157,4.0,10.0,92,0.00,,,0.00,288,Wunderground v.1.15,2013-05-22 19:29:00,
2013-05-22 15:34:00,62.0,60.0,29.89,SSW,196,4.0,10.0,93,0.00,,,0.00,223,Wunderground v.1.15,2013-05-22 19:34:00,
2013-05-22 15:44:00,62.0,60.0,29.89,SSE,163,4.0,10.0,93,0.00,,,0.00,163,Wunderground v.1.15,2013-05-22 19:44:00,
2013-05-22 15:54:00,61.8,59.8,29.89,South,171,3.0,10.0,93,0.00,,,0.00,128,Wunderground v.1.15,2013-05-22 19:54:00,
2013-05-22 16:04:00,61.3,59.6,29.88,South,173,4.0,8.0,94,0.00,,,0.00,188,Wunderground v.1.15,2013-05-22 20:04:00,
2013-05-22 16:14:00,61.1,59.7,29.88,SSE,161,5.0,8.0,95,0.00,,,0.00,260,Wunderground v.1.15,2013-05-22 20:14:00,
2013-05-22 16:19:00,61.6,60.2,29.88,SSE,157,3.0,8.0,95,0.00,,,0.00,200,Wunderground v.1.15,2013-05-22 20:19:00,
2013-05-22 16:29:00,61.5,60.1,29.88,South,191,4.0,4.0,95,0.00,,,0.00,178,Wunderground v.1.15,2013-05-22 20:29:00,
2013-05-22 16:39:00,61.4,60.0,29.88,SSE,159,4.0,9.0,95,0.00,,,0.00,181,Wunderground v.1.15,2013-05-22 20:39:00,
2013-05-22 16:49:00,60.6,59.2,29.88,SSE,159,6.0,9.0,95,0.00,,,0.00,155,Wunderground v.1.15,2013-05-22 20:49:00,
2013-05-22 16:59:00,60.4,59.3,29.88,SSE,160,5.0,12.0,96,0.00,,,0.00,128,Wunderground v.1.15,2013-05-22 20:59:00,
2013-05-22 17:04:00,60.3,59.2,29.88,SSE,165,4.0,12.0,96,0.00,,,0.00,134,Wunderground v.1.15,2013-05-22 21:04:00,
2013-05-22 17:14:00,60.5,59.4,29.88,SSE,149,2.0,5.0,96,0.00,,,0.00,95,Wunderground v.1.15,2013-05-22 21:14:00,
2013-05-22 17:19:00,60.2,59.1,29.88,SSE,156,3.0,12.0,96,0.00,,,0.00,74,Wunderground v.1.15,2013-05-22 21:19:00,
2013-05-22 17:29:00,60.0,58.9,29.88,SSE,155,4.0,9.0,96,0.00,,,0.00,77,Wunderground v.1.15,2013-05-22 21:29:00,
2013-05-22 17:39:00,60.1,59.2,29.88,South,169,2.0,9.0,97,0.00,,,0.00,67,Wunderground v.1.15,2013-05-22 21:39:00,
2013-05-22 17:49:00,60.2,59.3,29.88,SSE,161,3.0,9.0,97,0.00,,,0.00,67,Wunderground v.1.15,2013-05-22 21:49:00,
2013-05-22 17:59:00,60.5,59.6,29.87,South,180,4.0,4.0,97,0.00,,,0.00,93,Wunderground v.1.15,2013-05-22 21:59:00,
2013-05-22 18:04:00,60.3,59.2,29.87,SE,140,4.0,7.0,96,0.00,,,0.00,105,Wunderground v.1.15,2013-05-22 22:04:00,
2013-05-22 18:14:00,60.3,59.2,29.87,SSE,152,3.0,7.0,96,0.00,,,0.00,86,Wunderground v.1.15,2013-05-22 22:14:00,
2013-05-22 18:24:00,60.3,59.2,29.87,SE,131,3.0,4.0,96,0.00,,,0.00,60,Wunderground v.1.15,2013-05-22 22:24:00,
2013-05-22 18:34:00,60.4,59.3,29.87,SE,144,3.0,6.0,96,0.00,,,0.00,69,Wunderground v.1.15,2013-05-22 22:34:00,
2013-05-22 18:44:00,60.5,59.4,29.87,SE,145,5.0,8.0,96,0.00,,,0.00,67,Wunderground v.1.15,2013-05-22 22:44:00,
2013-05-22 18:54:00,60.4,59.3,29.87,SSE,165,5.0,9.0,96,0.00,,,0.00,65,Wunderground v.1.15,2013-05-22 22:54:00,
2013-05-22 19:04:00,60.6,59.5,29.88,SE,135,4.0,9.0,96,0.00,,,0.00,67,Wunderground v.1.15,2013-05-22 23:04:00,
2013-05-22 19:14:00,60.8,59.7,29.88,South,183,3.0,9.0,96,0.00,,,0.00,67,Wunderground v.1.15,2013-05-22 23:14:00,
2013-05-22 19:24:00,60.6,59.2,29.88,SSE,157,4.0,10.0,95,0.00,,,0.00,63,Wunderground v.1.15,2013-05-22 23:24:00,
2013-05-22 19:34:00,60.4,59.3,29.88,South,171,4.0,10.0,96,0.00,,,0.00,46,Wunderground v.1.15,2013-05-22 23:34:00,
2013-05-22 19:44:00,60.4,59.3,29.88,South,175,3.0,10.0,96,0.00,,,0.00,30,Wunderground v.1.15,2013-05-22 23:44:00,
2013-05-22 19:49:00,60.2,58.8,29.88,SSE,161,3.0,10.0,95,0.00,,,0.00,23,Wunderground v.1.15,2013-05-22 23:49:00,
2013-05-22 19:59:00,60.2,59.1,29.88,SSW,192,3.0,3.0,96,0.00,,,0.00,12,Wunderground v.1.15,2013-05-22 23:59:00,
2013-05-22 20:04:00,60.1,59.0,29.88,SSE,166,3.0,6.0,96,0.00,,,0.00,9,Wunderground v.1.15,2013-05-23 00:04:00,
2013-05-22 20:14:00,60.0,58.9,29.88,SSE,157,3.0,9.0,96,0.00,,,0.00,0,Wunderground v.1.15,2013-05-23 00:14:00,
2013-05-22 20:24:00,59.8,58.7,29.88,SSE,155,3.0,9.0,96,0.00,,,0.00,0,Wunderground v.1.15,2013-05-23 00:24:00,
2013-05-22 20:34:00,59.8,58.7,29.88,SSW,205,3.0,7.0,96,0.00,,,0.00,0,Wunderground v.1.15,2013-05-23 00:34:00,
2013-05-22 20:44:00,59.9,58.8,29.88,SSE,154,3.0,5.0,96,0.00,,,0.00,0,Wunderground v.1.15,2013-05-23 00:44:00,
2013-05-22 20:54:00,59.9,58.8,29.88,SSE,162,3.0,7.0,96,0.00,,,0.00,0,Wunderground v.1.15,2013-05-23 00:54:00,
2013-05-22 20:59:00,59.9,59.0,29.88,SSE,168,3.0,3.0,97,0.00,,,0.00,0,Wunderground v.1.15,2013-05-23 00:59:00,
2013-05-22 21:09:00,60.0,59.1,29.89,South,185,3.0,7.0,97,0.00,,,0.00,0,Wunderground v.1.15,2013-05-23 01:09:00,
2013-05-22 21:19:00,60.1,59.2,29.90,South,171,3.0,7.0,97,0.00,,,0.00,0,Wunderground v.1.15,2013-05-23 01:19:00,
2013-05-22 21:24:00,60.1,59.2,29.90,SSW,200,3.0,8.0,97,0.00,,,0.00,0,Wunderground v.1.15,2013-05-23 01:24:00,
2013-05-22 21:34:00,60.3,59.4,29.90,South,171,4.0,8.0,97,0.00,,,0.00,0,Wunderground v.1.15,2013-05-23 01:34:00,
2013-05-22 21:39:00,60.3,59.4,29.90,SSW,207,4.0,8.0,97,0.00,,,0.00,0,Wunderground v.1.15,2013-05-23 01:39:00,
2013-05-22 21:49:00,60.2,59.3,29.90,SSE,168,3.0,8.0,97,0.00,,,0.00,0,Wunderground v.1.15,2013-05-23 01:49:00,
2013-05-22 21:59:00,60.3,59.4,29.91,South,172,5.0,8.0,97,0.00,,,0.00,0,Wunderground v.1.15,2013-05-23 01:59:00,
2013-05-22 22:04:00,60.3,59.4,29.91,South,171,4.0,8.0,97,0.00,,,0.00,0,Wunderground v.1.15,2013-05-23 02:04:00,
2013-05-22 22:14:00,60.1,59.2,29.91,SW,215,4.0,8.0,97,0.00,,,0.00,0,Wunderground v.1.15,2013-05-23 02:14:00,
2013-05-22 22:24:00,60.3,59.4,29.91,SSE,163,3.0,10.0,97,0.00,,,0.00,0,Wunderground v.1.15,2013-05-23 02:24:00,
2013-05-22 22:34:00,60.7,59.8,29.91,South,179,4.0,10.0,97,0.00,,,0.00,0,Wunderground v.1.15,2013-05-23 02:34:00,
2013-05-22 22:44:00,60.5,59.6,29.91,SE,146,5.0,10.0,97,0.00,,,0.00,0,Wunderground v.1.15,2013-05-23 02:44:00,
2013-05-22 22:54:00,60.4,59.5,29.92,SSW,200,5.0,11.0,97,0.00,,,0.00,0,Wunderground v.1.15,2013-05-23 02:54:00,
2013-05-22 23:04:00,60.3,59.4,29.91,SSW,205,4.0,11.0,97,0.00,,,0.00,0,Wunderground v.1.15,2013-05-23 03:04:00,
2013-05-22 23:09:00,60.3,59.4,29.91,SSW,202,4.0,11.0,97,0.00,,,0.00,0,Wunderground v.1.15,2013-05-23 03:09:00,
2013-05-22 23:19:00,60.2,59.3,29.91,South,169,3.0,11.0,97,0.00,,,0.00,0,Wunderground v.1.15,2013-05-23 03:19:00,
2013-05-22 23:24:00,60.2,59.3,29.91,SSW,204,4.0,12.0,97,0.00,,,0.00,0,Wunderground v.1.15,2013-05-23 03:24:00,
2013-05-22 23:34:00,60.1,59.2,29.91,SW,220,4.0,12.0,97,0.00,,,0.00,0,Wunderground v.1.15,2013-05-23 03:34:00,
2013-05-22 23:44:00,60.3,59.4,29.91,SSW,200,4.0,12.0,97,0.00,,,0.00,0,Wunderground v.1.15,2013-05-23 03:44:00,
2013-05-22 23:49:00,60.3,59.4,29.91,South,178,4.0,12.0,97,0.00,,,0.00,0,Wunderground v.1.15,2013-05-23 03:49:00,
2013-05-22 23:59:00,60.1,59.2,29.91,SSW,208,4.0,10.0,97,0.00,,,0.00,0,Wunderground v.1.15,2013-05-23 03:59:00,